createdAt,value
2022-11-21T00:00:41.749Z,99450.69
2022-11-21T00:03:10.202Z,99454.97
2022-11-21T00:05:41.617Z,99446.25
2022-11-21T00:08:09.610Z,99449.75
2022-11-21T00:10:38.121Z,99450.59
2022-11-21T00:13:06.003Z,99442.78
2022-11-21T00:15:33.753Z,99448.06
2022-11-21T00:18:02.860Z,99448.06
2022-11-21T00:20:29.598Z,99454.16
2022-11-21T00:22:56.346Z,99445.38
2022-11-21T00:25:22.883Z,99448.94
2022-11-21T00:27:49.618Z,99452.47
2022-11-21T00:30:16.309Z,99448.13
2022-11-21T00:32:43.017Z,99445.50
2022-11-21T00:35:09.655Z,99445.47
2022-11-21T00:37:36.252Z,99439.34
2022-11-21T00:40:03.780Z,99431.47
2022-11-21T00:42:30.419Z,99432.31
2022-11-21T00:44:57.191Z,99427.09
2022-11-21T00:47:24.055Z,99433.19
2022-11-21T00:49:50.754Z,99425.41
2022-11-21T00:52:18.355Z,99423.72
2022-11-21T00:54:45.008Z,99417.63
2022-11-21T00:57:11.608Z,99413.34
2022-11-21T00:59:38.238Z,99418.63
2022-11-21T01:02:05.553Z,99410.84
2022-11-21T01:04:33.741Z,99414.31
2022-11-21T01:07:00.595Z,99412.56
2022-11-21T01:09:28.661Z,99411.66
2022-11-21T01:11:56.580Z,99420.25
2022-11-21T01:14:23.812Z,99410.69
2022-11-21T01:16:50.575Z,99400.22
2022-11-21T01:19:17.346Z,99398.44
2022-11-21T01:21:44.028Z,99408.78
2022-11-21T01:24:12.494Z,99402.72
2022-11-21T01:26:39.211Z,99397.50
2022-11-21T01:29:07.186Z,99397.50
2022-11-21T01:31:33.914Z,99400.13
2022-11-21T01:34:01.291Z,99395.78
2022-11-21T01:36:33.158Z,99397.56
2022-11-21T01:39:02.326Z,99401.97
2022-11-21T01:41:48.212Z,99397.63
2022-11-21T01:44:46.856Z,99401.13
2022-11-21T01:47:13.945Z,99422.94
2022-11-21T01:49:43.681Z,99414.22
2022-11-21T01:52:15.399Z,99420.34
2022-11-21T01:54:41.952Z,99411.66
2022-11-21T01:57:12.793Z,99400.34
2022-11-21T01:59:41.252Z,99396.06
2022-11-21T02:02:10.762Z,99397.84
2022-11-21T02:04:41.030Z,99393.56
2022-11-21T02:07:08.169Z,99395.31
2022-11-21T02:09:37.661Z,99389.19
2022-11-21T02:12:15.627Z,99390.97
2022-11-21T02:14:43.928Z,99380.53
2022-11-21T02:17:12.076Z,99383.13
2022-11-21T02:19:55.397Z,99382.16
2022-11-21T02:22:35.634Z,99387.31
2022-11-21T02:25:08.226Z,99399.38
2022-11-21T02:27:35.100Z,99402.84
2022-11-21T02:30:03.764Z,99410.66
2022-11-21T02:32:48.417Z,99404.53
2022-11-21T02:35:17.551Z,99405.31
2022-11-21T02:37:51.760Z,99400.91
2022-11-21T02:40:22.702Z,99400.78
2022-11-21T02:43:21.774Z,99408.31
2022-11-21T02:45:48.405Z,99404.41
2022-11-21T02:48:15.567Z,99411.81
2022-11-21T02:50:46.683Z,99414.97
2022-11-21T02:53:15.908Z,99428.63
2022-11-21T02:55:43.322Z,99409.31
2022-11-21T02:58:10.584Z,99415.25
2022-11-21T03:00:41.084Z,99413.50
2022-11-21T03:03:08.208Z,99406.47
2022-11-21T03:05:35.475Z,99418.66
2022-11-21T03:08:02.313Z,99427.50
2022-11-21T03:10:29.001Z,99424.16
2022-11-21T03:13:01.293Z,99417.22
2022-11-21T03:15:34.144Z,99429.44
2022-11-21T03:18:03.215Z,99434.72
2022-11-21T03:20:33.219Z,99420.88
2022-11-21T03:22:59.901Z,99420.97
2022-11-21T03:25:27.294Z,99426.28
2022-11-21T03:27:54.257Z,99428.13
2022-11-21T03:30:22.518Z,99439.41
2022-11-21T03:32:49.252Z,99441.94
2022-11-21T03:35:16.235Z,99443.56
2022-11-21T03:37:43.155Z,99440.00
2022-11-21T03:40:10.582Z,99439.94
2022-11-21T03:42:37.234Z,99444.34
2022-11-21T03:45:04.503Z,99447.81
2022-11-21T03:47:31.289Z,99462.59
2022-11-21T03:49:57.897Z,99459.03
2022-11-21T03:52:24.544Z,99461.66
2022-11-21T03:54:51.285Z,99462.47
2022-11-21T03:57:17.838Z,99475.47
2022-11-21T03:59:44.466Z,99475.38
2022-11-21T04:02:11.042Z,99475.34
2022-11-21T04:04:37.707Z,99468.38
2022-11-21T04:07:04.346Z,99467.56
2022-11-21T04:09:30.939Z,99464.09
2022-11-21T04:11:57.670Z,99467.72
2022-11-21T04:14:24.251Z,99471.25
2022-11-21T04:16:50.927Z,99475.63
2022-11-21T04:19:17.590Z,99475.50
2022-11-21T04:21:44.235Z,99480.66
2022-11-21T04:24:10.981Z,99475.38
2022-11-21T04:26:37.621Z,99479.69
2022-11-21T04:29:04.152Z,99477.88
2022-11-21T04:31:30.762Z,99480.44
2022-11-21T04:33:57.418Z,99482.00
2022-11-21T04:36:24.080Z,99479.16
2022-11-21T04:38:50.750Z,99473.72
2022-11-21T04:41:17.333Z,99485.72
2022-11-21T04:43:43.961Z,99482.84
2022-11-21T04:46:10.646Z,99487.78
2022-11-21T04:48:37.336Z,99489.22
2022-11-21T04:51:03.978Z,99495.81
2022-11-21T04:53:30.623Z,99501.50
2022-11-21T04:55:57.305Z,99502.88
2022-11-21T04:58:23.898Z,99496.41
2022-11-21T05:00:50.558Z,99493.47
2022-11-21T05:03:17.197Z,99500.06
2022-11-21T05:05:43.830Z,99498.91
2022-11-21T05:08:10.427Z,99497.81
2022-11-21T05:10:56.973Z,99496.63
2022-11-21T05:13:23.649Z,99505.97
2022-11-21T05:15:56.897Z,99499.69
2022-11-21T05:18:23.544Z,99507.31
2022-11-21T05:20:50.121Z,99502.00
2022-11-21T05:23:16.713Z,99495.03
2022-11-21T05:25:43.343Z,99494.91
2022-11-21T05:28:10.044Z,99509.50
2022-11-21T05:30:37.746Z,99500.72
2022-11-21T05:35:43.629Z,99503.09
2022-11-21T05:38:09.828Z,99504.66
2022-11-21T05:40:35.691Z,99507.16
2022-11-21T05:43:20.239Z,99509.59
2022-11-21T05:45:50.091Z,99512.00
2022-11-21T05:48:17.535Z,99509.25
2022-11-21T05:50:48.426Z,99508.09
2022-11-21T05:53:15.598Z,99501.91
2022-11-21T05:55:42.337Z,99513.09
2022-11-21T05:58:10.755Z,99516.44
2022-11-21T06:00:38.152Z,99511.13
2022-11-21T06:03:24.477Z,99517.97
2022-11-21T06:05:51.219Z,99522.25
2022-11-21T06:08:17.960Z,99524.13
2022-11-21T06:10:44.859Z,99519.97
2022-11-21T06:13:23.724Z,99515.03
2022-11-21T06:16:00.939Z,99515.25
2022-11-21T06:18:29.082Z,99509.34
2022-11-21T06:21:21.015Z,99509.69
2022-11-21T06:23:50.095Z,99514.34
2022-11-21T06:26:20.029Z,99519.84
2022-11-21T06:28:47.929Z,99520.13
2022-11-21T06:31:17.645Z,99519.50
2022-11-21T06:33:45.161Z,99522.38
2022-11-21T06:36:16.121Z,99525.13
2022-11-21T06:38:44.541Z,99532.31
2022-11-21T06:41:12.417Z,99535.97
2022-11-21T06:43:39.148Z,99531.72
2022-11-21T06:46:06.057Z,99541.31
2022-11-21T06:48:34.101Z,99539.50
2022-11-21T06:51:13.571Z,99540.34
2022-11-21T06:53:40.213Z,99530.75
2022-11-21T06:56:06.994Z,99532.56
2022-11-21T06:58:33.724Z,99535.97
2022-11-21T07:01:06.070Z,99537.75
2022-11-21T07:03:33.473Z,99538.66
2022-11-21T07:06:04.067Z,99551.56
2022-11-21T07:08:32.439Z,99560.22
2022-11-21T07:11:24.448Z,99569.63
2022-11-21T07:13:51.428Z,99564.38
2022-11-21T07:16:18.047Z,99567.97
2022-11-21T07:18:45.547Z,99572.38
2022-11-21T07:21:12.249Z,99577.81
2022-11-21T07:23:38.954Z,99580.59
2022-11-21T07:26:08.133Z,99566.84
2022-11-21T07:28:35.379Z,99564.47
2022-11-21T07:31:07.047Z,99568.19
2022-11-21T07:33:35.257Z,99571.94
2022-11-21T07:36:01.944Z,99568.72
2022-11-21T07:38:28.533Z,99572.38
2022-11-21T07:40:58.377Z,99570.00
2022-11-21T07:43:25.047Z,99568.63
2022-11-21T07:45:51.627Z,99568.03
2022-11-21T07:48:18.200Z,99576.84
2022-11-21T07:50:45.091Z,99575.22
2022-11-21T07:53:11.899Z,99569.16
2022-11-21T07:55:40.756Z,99589.22
2022-11-21T07:58:10.580Z,99578.72
2022-11-21T08:00:39.837Z,99576.88
2022-11-21T08:03:07.252Z,99578.44
2022-11-21T08:05:37.895Z,99573.16
2022-11-21T08:08:08.621Z,99574.91
2022-11-21T08:10:40.297Z,99572.16
2022-11-21T08:13:07.092Z,99566.06
2022-11-21T08:15:33.666Z,99566.94
2022-11-21T08:18:07.920Z,99567.81
2022-11-21T08:20:34.610Z,99562.88
2022-11-21T08:23:01.520Z,99563.06
2022-11-21T08:25:28.113Z,99564.84
2022-11-21T08:27:58.408Z,99570.41
2022-11-21T08:30:25.945Z,99571.56
2022-11-21T08:32:52.529Z,99563.81
2022-11-21T08:35:19.245Z,99562.91
2022-11-21T08:37:46.042Z,99570.84
2022-11-21T08:40:12.612Z,99568.34
2022-11-21T08:42:39.246Z,99578.06
2022-11-21T08:45:06.484Z,99576.66
2022-11-21T08:47:34.246Z,99571.78
2022-11-21T08:50:05.795Z,99573.72
2022-11-21T08:52:35.453Z,99573.84
2022-11-21T08:55:02.373Z,99575.66
2022-11-21T08:57:28.955Z,99570.53
2022-11-21T08:59:55.621Z,99573.41
2022-11-21T09:02:22.387Z,99572.00
2022-11-21T09:04:49.520Z,99579.38
2022-11-21T09:07:17.411Z,99578.88
2022-11-21T09:09:44.066Z,99577.09
2022-11-21T09:12:10.710Z,99582.03
2022-11-21T09:14:55.614Z,99584.41
2022-11-21T09:17:40.799Z,99582.47
2022-11-21T09:20:08.400Z,99580.47
2022-11-21T09:22:35.034Z,99578.69
2022-11-21T09:25:01.735Z,99580.47
2022-11-21T09:27:28.354Z,99591.16
2022-11-21T09:29:54.953Z,99587.91
2022-11-21T09:32:21.791Z,99599.44
2022-11-21T09:34:48.523Z,99596.13
2022-11-21T09:37:15.251Z,99599.88
2022-11-21T09:39:41.827Z,99596.44
2022-11-21T09:42:26.534Z,99597.38
2022-11-21T09:45:05.895Z,99596.56
2022-11-21T09:47:37.065Z,99588.78
2022-11-21T09:50:12.730Z,99590.56
2022-11-21T09:53:05.360Z,99589.75
2022-11-21T09:55:34.901Z,99589.81
2022-11-21T09:58:42.367Z,99586.47
2022-11-21T10:01:12.554Z,99587.50
2022-11-21T10:03:47.402Z,99587.78
2022-11-21T10:06:17.217Z,99587.19
2022-11-21T10:09:07.752Z,99583.09
2022-11-21T10:12:18.137Z,99580.63
2022-11-21T10:14:50.535Z,99566.88
2022-11-21T10:17:37.157Z,99559.03
2022-11-21T10:20:32.760Z,99556.50
2022-11-21T10:23:22.282Z,99559.16
2022-11-21T10:26:05.048Z,99561.59
2022-11-21T10:28:55.465Z,99557.88
2022-11-21T10:31:22.998Z,99549.03
2022-11-21T10:33:53.337Z,99557.69
2022-11-21T10:36:27.429Z,99555.94
2022-11-21T10:39:01.034Z,99548.16
2022-11-21T10:41:40.594Z,99547.25
2022-11-21T10:44:42.708Z,99545.50
2022-11-21T10:47:30.964Z,99542.84
2022-11-21T10:50:18.009Z,99547.00
2022-11-21T10:52:50.798Z,99545.25
2022-11-21T10:55:18.329Z,99545.16
2022-11-21T10:57:46.721Z,99536.44
2022-11-21T11:00:14.955Z,99538.09
2022-11-21T11:03:05.048Z,99539.75
2022-11-21T11:05:38.392Z,99535.44
2022-11-21T11:08:08.874Z,99525.06
2022-11-21T11:11:06.237Z,99530.50
2022-11-21T11:13:51.706Z,99528.81
2022-11-21T11:16:21.403Z,99531.50
2022-11-21T11:19:00.096Z,99522.03
2022-11-21T11:21:28.214Z,99523.00
2022-11-21T11:24:07.109Z,99515.31
2022-11-21T11:26:34.142Z,99519.84
2022-11-21T11:29:14.399Z,99514.09
2022-11-21T11:31:45.998Z,99516.81
2022-11-21T11:34:15.078Z,99503.72
2022-11-21T11:36:56.486Z,99505.53
2022-11-21T11:39:26.253Z,99499.44
2022-11-21T11:42:30.490Z,99496.00
2022-11-21T11:45:15.506Z,99491.69
2022-11-21T11:47:59.742Z,99489.97
2022-11-21T11:50:31.866Z,99480.41
2022-11-21T11:53:15.672Z,99486.50
2022-11-21T11:55:47.412Z,99480.44
2022-11-21T11:58:29.588Z,99479.59
2022-11-21T12:01:10.328Z,99475.22
2022-11-21T12:03:37.018Z,99480.47
2022-11-21T12:06:09.923Z,99470.06
2022-11-21T12:09:15.033Z,99464.97
2022-11-21T12:12:09.268Z,99459.81
2022-11-21T12:15:13.077Z,99448.50
2022-11-21T12:18:24.002Z,99441.53
2022-11-21T12:21:02.859Z,99438.09
2022-11-21T12:23:47.284Z,99427.69
2022-11-21T12:26:35.184Z,99419.00
2022-11-21T12:29:20.624Z,99419.84
2022-11-21T12:32:06.073Z,99413.72
2022-11-21T12:35:10.714Z,99421.56
2022-11-21T12:38:05.105Z,99403.31
2022-11-21T12:40:50.224Z,99406.78
2022-11-21T12:43:35.330Z,99409.44
2022-11-21T12:46:11.029Z,99398.06
2022-11-21T12:49:08.726Z,99410.19
2022-11-21T12:51:57.097Z,99401.47
2022-11-21T12:54:40.655Z,99398.78
2022-11-21T12:57:18.793Z,99403.09
2022-11-21T13:00:09.760Z,99412.72
2022-11-21T13:02:55.086Z,99409.22
2022-11-21T13:05:45.521Z,99408.28
2022-11-21T13:08:24.454Z,99406.56
2022-11-21T13:11:50.923Z,99408.25
2022-11-21T13:14:39.561Z,99405.59
2022-11-21T13:17:31.123Z,99402.91
2022-11-21T13:20:16.405Z,99402.91
2022-11-21T13:22:47.229Z,99401.16
2022-11-21T13:25:40.635Z,99397.63
2022-11-21T13:28:13.239Z,99395.88
2022-11-21T13:31:31.288Z,99394.97
2022-11-21T13:33:58.617Z,99393.22
2022-11-21T13:36:28.346Z,99386.22
2022-11-21T13:38:54.918Z,99381.88
2022-11-21T13:41:55.645Z,99378.34
2022-11-21T13:44:31.744Z,99379.13
2022-11-21T13:47:25.755Z,99371.22
2022-11-21T13:50:14.797Z,99381.66
2022-11-21T13:52:54.784Z,99376.34
2022-11-21T13:55:47.399Z,99373.72
2022-11-21T13:58:26.935Z,99369.34
2022-11-21T14:01:12.461Z,99365.81
2022-11-21T14:04:01.065Z,99365.75
2022-11-21T14:06:36.510Z,99357.94
2022-11-21T14:09:23.277Z,99370.91
2022-11-21T14:11:52.308Z,99368.28
2022-11-21T14:14:31.507Z,99356.91
2022-11-21T14:17:16.633Z,99369.94
2022-11-21T14:19:43.443Z,99365.59
2022-11-21T14:22:30.487Z,99357.75
2022-11-21T14:25:01.119Z,99367.28
2022-11-21T14:27:35.322Z,99372.50
2022-11-21T14:30:02.016Z,99363.78
2022-11-21T14:32:30.119Z,99365.53
2022-11-21T14:35:20.590Z,99356.75
2022-11-21T14:37:48.191Z,99349.72
2022-11-21T14:40:21.893Z,99345.22
2022-11-21T14:42:48.738Z,99349.53
2022-11-21T14:45:17.491Z,99348.56
2022-11-21T14:47:48.895Z,99350.25
2022-11-21T14:50:23.773Z,99348.41
2022-11-21T14:52:57.441Z,99337.06
2022-11-21T14:55:30.786Z,99337.84
2022-11-21T14:58:01.472Z,99336.88
2022-11-21T15:03:23.259Z,99327.97
2022-11-21T15:06:04.475Z,99331.31
2022-11-21T15:11:29.496Z,99319.78
2022-11-21T15:14:18.256Z,99317.94
2022-11-21T15:16:51.310Z,99310.06
2022-11-21T15:19:27.478Z,99309.03
2022-11-21T15:21:57.427Z,99298.53
2022-11-21T15:24:31.311Z,99295.81
2022-11-21T15:26:58.934Z,99280.97
2022-11-21T15:29:25.590Z,99284.31
2022-11-21T15:32:16.444Z,99279.00
2022-11-21T15:34:43.944Z,99275.34
2022-11-21T15:37:18.087Z,99276.13
2022-11-21T15:39:50.222Z,99266.44
2022-11-21T15:42:36.262Z,99259.38
2022-11-21T15:45:16.717Z,99261.06
2022-11-21T15:47:47.064Z,99256.59
2022-11-21T15:50:14.756Z,99254.78
2022-11-21T15:52:45.292Z,99251.19
2022-11-21T15:55:17.876Z,99255.53
2022-11-21T15:57:44.633Z,99250.22
2022-11-21T16:00:11.809Z,99257.13
2022-11-21T16:02:38.411Z,99239.72
2022-11-21T16:05:05.776Z,99244.84
2022-11-21T16:07:32.504Z,99232.63
2022-11-21T16:09:59.211Z,99240.41
2022-11-21T16:12:25.873Z,99229.06
2022-11-21T16:14:52.436Z,99224.69
2022-11-21T16:17:19.426Z,99223.78
2022-11-21T16:19:46.255Z,99216.69
2022-11-21T16:22:12.965Z,99234.00
2022-11-21T16:24:39.565Z,99233.94
2022-11-21T16:27:06.238Z,99240.81
2022-11-21T16:29:32.967Z,99231.19
2022-11-21T16:31:59.619Z,99236.41
2022-11-21T16:34:27.533Z,99237.22
2022-11-21T16:36:55.090Z,99233.72
2022-11-21T16:39:21.866Z,99232.78
2022-11-21T16:41:49.412Z,99227.53
2022-11-21T16:44:16.786Z,99219.72
2022-11-21T16:46:47.229Z,99230.16
2022-11-21T16:49:14.239Z,99230.94
2022-11-21T16:51:41.035Z,99223.94
2022-11-21T16:54:09.430Z,99219.50
2022-11-21T16:56:36.420Z,99227.31
2022-11-21T16:59:03.078Z,99219.47
2022-11-21T17:01:29.833Z,99204.75
2022-11-21T17:03:56.610Z,99204.75
2022-11-21T17:06:27.251Z,99208.13
2022-11-21T17:08:54.275Z,99195.06
2022-11-21T17:11:23.358Z,99199.38
2022-11-21T17:13:51.337Z,99194.09
2022-11-21T17:16:21.607Z,99194.09
2022-11-21T17:18:52.645Z,99191.50
2022-11-21T17:21:19.274Z,99191.50
2022-11-21T17:23:46.274Z,99188.00
2022-11-21T17:26:15.572Z,99176.78
2022-11-21T17:28:45.808Z,99175.00
2022-11-21T17:31:15.607Z,99176.78
2022-11-21T17:33:43.571Z,99170.75
2022-11-21T17:36:14.869Z,99165.75
2022-11-21T17:38:43.161Z,99160.97
2022-11-21T17:41:13.705Z,99159.72
2022-11-21T17:43:40.885Z,99164.47
2022-11-21T17:46:11.783Z,99155.31
2022-11-21T17:48:38.884Z,99154.81
2022-11-21T17:51:09.435Z,99148.16
2022-11-21T17:53:42.085Z,99133.53
2022-11-21T17:56:12.411Z,99131.88
2022-11-21T17:58:39.170Z,99118.88
2022-11-21T18:01:07.640Z,99110.22
2022-11-21T18:03:35.697Z,99105.91
2022-11-21T18:06:08.317Z,99097.09
2022-11-21T18:08:39.761Z,99087.34
2022-11-21T18:11:09.831Z,99092.31
2022-11-21T18:13:37.370Z,99082.38
2022-11-21T18:16:06.988Z,99079.53
2022-11-21T18:18:35.322Z,99067.94
2022-11-21T18:21:06.845Z,99072.94
2022-11-21T18:23:34.362Z,99061.47
2022-11-21T18:26:05.874Z,99060.44
2022-11-21T18:28:33.234Z,99063.72
2022-11-21T18:31:11.019Z,99054.03
2022-11-21T18:33:38.386Z,99057.44
2022-11-21T18:36:06.819Z,99050.41
2022-11-21T18:38:57.791Z,99049.38
2022-11-21T18:41:30.152Z,99040.59
2022-11-21T18:44:00.042Z,99041.31
2022-11-21T18:46:28.489Z,99044.66
2022-11-21T18:49:06.323Z,99045.41
2022-11-21T18:51:34.418Z,99050.44
2022-11-21T18:54:11.372Z,99040.84
2022-11-21T18:56:39.834Z,99044.25
2022-11-21T18:59:07.048Z,99037.25
2022-11-21T19:01:35.795Z,99028.53
2022-11-21T19:04:02.732Z,99021.59
2022-11-21T19:06:29.939Z,99010.25
2022-11-21T19:08:58.068Z,99008.44
2022-11-21T19:11:27.641Z,99017.06
2022-11-21T19:13:55.354Z,99022.16
2022-11-21T19:16:24.975Z,99018.59
2022-11-21T19:21:42.660Z,99011.63
2022-11-21T19:24:14.273Z,99008.97
2022-11-21T19:26:42.029Z,99009.78
2022-11-21T19:29:09.281Z,99008.00
2022-11-21T19:31:41.065Z,99007.91
2022-11-21T19:34:11.140Z,99009.59
2022-11-21T19:36:39.309Z,99009.50
2022-11-21T19:39:05.943Z,98996.47
2022-11-21T19:41:32.533Z,98998.22
2022-11-21T19:44:00.649Z,99005.97
2022-11-21T19:46:32.321Z,98999.03
2022-11-21T19:49:00.087Z,98995.50
2022-11-21T19:51:35.668Z,98998.94
2022-11-21T19:54:03.693Z,98994.53
2022-11-21T19:56:30.707Z,98991.91
2022-11-21T19:58:58.853Z,98987.50
2022-11-21T20:01:28.127Z,98986.59
2022-11-21T20:03:57.787Z,98974.47
2022-11-21T20:06:38.498Z,98974.47
2022-11-21T20:09:12.152Z,98972.69
2022-11-21T20:11:40.340Z,98967.47
2022-11-21T20:14:07.285Z,98976.09
2022-11-21T20:16:39.936Z,98991.66
2022-11-21T20:19:09.995Z,98988.13
2022-11-21T20:21:37.769Z,98997.59
2022-11-21T20:24:05.240Z,99020.06
2022-11-21T20:26:32.655Z,99037.41
2022-11-21T20:28:59.904Z,99029.59
2022-11-21T20:31:32.219Z,99021.81
2022-11-21T20:34:01.153Z,99022.69
2022-11-21T20:36:30.813Z,99013.16
2022-11-21T20:39:09.069Z,99007.06
2022-11-21T20:41:37.153Z,99005.28
2022-11-21T20:46:52.642Z,99013.09
2022-11-21T20:49:19.344Z,99010.47
2022-11-21T20:54:33.217Z,99015.59
2022-11-21T20:56:59.976Z,99015.59
2022-11-21T20:59:27.561Z,99012.19
2022-11-21T21:01:54.601Z,98997.44
2022-11-21T21:04:21.239Z,98994.03
2022-11-21T21:06:47.893Z,98983.63
2022-11-21T21:09:14.499Z,98975.88
2022-11-21T21:11:56.431Z,98982.81
2022-11-21T21:14:23.074Z,98983.78
2022-11-21T21:16:50.196Z,98974.34
2022-11-21T21:19:17.511Z,98982.31
2022-11-21T21:21:44.181Z,98981.56
2022-11-21T21:24:11.851Z,98983.44
2022-11-21T21:26:43.024Z,98986.19
2022-11-21T21:29:11.826Z,98992.41
2022-11-21T21:31:38.795Z,98995.09
2022-11-21T21:34:05.582Z,99000.38
2022-11-21T21:36:32.542Z,99002.25
2022-11-21T21:39:00.486Z,99004.97
2022-11-21T21:41:28.878Z,99012.09
2022-11-21T21:43:56.361Z,98998.41
2022-11-21T21:46:25.563Z,98995.09
2022-11-21T21:48:57.214Z,98992.53
2022-11-21T21:51:26.210Z,98987.41
2022-11-21T21:53:54.792Z,98990.94
2022-11-21T21:56:22.498Z,98999.75
2022-11-21T21:58:49.936Z,98998.94
2022-11-21T22:01:21.123Z,98987.69
2022-11-21T22:03:48.469Z,98979.03
2022-11-21T22:06:18.100Z,98982.56
2022-11-21T22:08:46.547Z,98980.88
2022-11-21T22:11:14.269Z,98973.13
2022-11-21T22:13:43.627Z,98968.00
2022-11-21T22:16:12.010Z,98968.06
2022-11-21T22:18:39.495Z,98959.41
2022-11-21T22:21:17.570Z,98962.06
2022-11-21T22:24:02.939Z,98959.50
2022-11-21T22:26:31.623Z,98960.38
2022-11-21T22:28:58.351Z,98956.91
2022-11-21T22:31:26.876Z,98944.75
2022-11-21T22:33:53.422Z,98949.97
2022-11-21T22:36:20.074Z,98952.69
2022-11-21T22:38:46.689Z,98947.53
2022-11-21T22:41:14.689Z,98944.13
2022-11-21T22:43:41.840Z,98935.50
2022-11-21T22:46:09.916Z,98936.41
2022-11-21T22:48:36.692Z,98932.97
2022-11-21T22:51:03.390Z,98934.72
2022-11-21T22:53:30.152Z,98923.47
2022-11-21T22:56:04.825Z,98918.25
2022-11-21T22:58:33.952Z,98913.91
2022-11-21T23:01:02.612Z,98915.72
2022-11-21T23:03:31.174Z,98916.63
2022-11-21T23:06:11.408Z,98905.38
2022-11-21T23:08:38.763Z,98901.97
2022-11-21T23:11:07.871Z,98902.03
2022-11-21T23:13:35.923Z,98889.00
2022-11-21T23:16:03.469Z,98885.56
2022-11-21T23:18:30.120Z,98876.91
2022-11-21T23:20:57.189Z,98871.69
2022-11-21T23:23:23.905Z,98869.06
2022-11-21T23:25:51.337Z,98859.53
2022-11-21T23:28:18.604Z,98865.59
2022-11-21T23:30:46.409Z,98864.75
2022-11-21T23:33:13.346Z,98861.25
2022-11-21T23:35:40.187Z,98856.06
2022-11-21T23:38:06.763Z,98861.25
2022-11-21T23:40:33.472Z,98857.81
2022-11-21T23:43:00.778Z,98855.25
2022-11-21T23:45:27.614Z,98850.06
2022-11-21T23:47:54.223Z,98847.47
2022-11-21T23:50:21.283Z,98860.47
2022-11-21T23:52:48.497Z,98863.13
2022-11-21T23:55:16.388Z,98855.34
2022-11-21T23:57:47.569Z,98858.88
